Michalis L — A8TZ8 — position and weather

sailwx.info

Track history (hours):
 
Tides and Currents Weather Stations Pressure Air Temp Water Temp Dewpoint Dewpoint Depression Visibility Wind Speed Wind Dir Waves Ship Positions

Michalis L

Last reported at 2017-Jan-23 01:12 UTC. Time now 2017-Feb-27 14:05 UTC.
Position S 24°23' W 046°12'.
Warning: this ship's position is 35 days out of date.

Length 230 m; draft 12.7 m.

Type: Cargo ship. MMSI: 636014462.

Date/timePositionNaut miles runAvg speedWind from/ knotsBaromVisibWave heightAir tempDewpointWater temp
2017-Jan-23 01:12S 24°23' W 046°12'711.4
2017-Jan-23 00:33S 24°17' W 046°18'1111.2
2017-Jan-22 23:34S 24°07' W 046°23'9 9.0
2017-Jan-22 22:33S 23°60' W 046°18'  
2017-Jan-18 01:32S 23°59' W 046°17'0 0.0
2017-Jan-17 11:32S 23°59' W 046°17'0 0.0
2017-Jan-17 10:15S 23°59' W 046°17'0 0.0
2017-Jan-17 09:27S 23°59' W 046°17'0 0.0
2017-Jan-17 03:33S 23°59' W 046°17'0 0.0
2017-Jan-16 17:23S 23°59' W 046°17'0 0.0
2017-Jan-16 16:23S 23°59' W 046°17'0 0.0
2017-Jan-16 15:23S 23°59' W 046°17'0 0.0
2017-Jan-16 14:30S 23°59' W 046°17'0 0.0
2017-Jan-16 12:29S 23°59' W 046°17'0 0.0
2017-Jan-16 11:24S 23°59' W 046°17'1 0.7
2017-Jan-16 10:33S 23°60' W 046°18'8 7.5
2017-Jan-16 09:33S 24°06' W 046°22'1 1.5
2017-Jan-16 08:33S 24°06' W 046°21'0 0.0
2017-Jan-16 07:33S 24°06' W 046°21'0 0.0
2017-Jan-16 06:30S 24°06' W 046°21'0 0.0
2017-Jan-16 05:27S 24°06' W 046°21'0 0.0
2017-Jan-16 04:33S 24°06' W 046°21'0 0.0
2017-Jan-16 03:33S 24°06' W 046°21'0 0.1
2017-Jan-16 02:33S 24°06' W 046°21'0 0.0
2017-Jan-16 01:30S 24°06' W 046°21'0 0.0
2017-Jan-16 00:33S 24°06' W 046°21'0 0.0
2017-Jan-15 23:33S 24°06' W 046°21'0 0.0
2017-Jan-15 22:33S 24°06' W 046°21'0 0.1
2017-Jan-15 21:33S 24°06' W 046°21'0 0.0
2017-Jan-15 20:33S 24°06' W 046°21'0 0.0
2017-Jan-15 19:27S 24°06' W 046°21'0 0.0
2017-Jan-15 18:33S 24°06' W 046°21'0 0.0
2017-Jan-15 17:33S 24°06' W 046°21'0 0.0
2017-Jan-15 16:33S 24°05' W 046°21'0 0.0
2017-Jan-15 15:33S 24°05' W 046°21'0 0.0
2017-Jan-15 14:33S 24°06' W 046°21'0 0.1
2017-Jan-15 13:33S 24°06' W 046°21'0 0.1
2017-Jan-15 12:24S 24°06' W 046°21'0 0.0
2017-Jan-15 11:33S 24°06' W 046°21'0 0.0
2017-Jan-15 10:33S 24°06' W 046°21'0 0.1
2017-Jan-15 09:33S 24°06' W 046°21'0 0.1
2017-Jan-15 08:33S 24°06' W 046°21'0 0.0
2017-Jan-15 07:33S 24°06' W 046°21'0 0.0
2017-Jan-15 06:30S 24°06' W 046°21'0 0.0
2017-Jan-15 05:33S 24°06' W 046°21'0 0.0
2017-Jan-15 04:33S 24°06' W 046°21'0 0.0
2017-Jan-15 03:33S 24°06' W 046°21'0 0.0
2017-Jan-15 02:33S 24°06' W 046°21'0 0.0
2017-Jan-15 01:33S 24°06' W 046°21'0 0.0
2017-Jan-15 00:33S 24°06' W 046°21'0 0.0
2017-Jan-14 23:33S 24°06' W 046°21'0 0.0
2017-Jan-14 22:30S 24°06' W 046°21'0 0.1
2017-Jan-14 21:33S 24°06' W 046°21'0 0.0
2017-Jan-14 20:33S 24°06' W 046°21'0 0.0
2017-Jan-14 19:27S 24°06' W 046°21'0 0.1
2017-Jan-14 18:24S 24°05' W 046°21'0 0.2
2017-Jan-14 17:33S 24°06' W 046°21'5 5.4
2017-Jan-14 16:33S 24°10' W 046°24'1211.8
2017-Jan-14 15:33S 24°22' W 046°24'1212.1
2017-Jan-14 14:33S 24°34' W 046°25'1313.4
2017-Jan-14 13:33S 24°48' W 046°26'  
Track history (hours):
 
Tides and Currents Weather Stations Pressure Air Temp Water Temp Dewpoint Dewpoint Depression Visibility Wind Speed Wind Dir Waves Ship Positions

Michalis L

Last reported at 2017-Jan-23 01:12 UTC. Time now 2017-Feb-27 14:05 UTC.
Position S 24°23' W 046°12'.
Warning: this ship's position is 35 days out of date.

Length 230 m; draft 12.7 m.

Type: Cargo ship. MMSI: 636014462.

Date/timePositionNaut miles runAvg speedWind from/ knotsBaromVisibWave heightAir tempDewpointWater temp
2017-Jan-23 01:12S 24°23' W 046°12'711.4
2017-Jan-23 00:33S 24°17' W 046°18'1111.2
2017-Jan-22 23:34S 24°07' W 046°23'9 9.0
2017-Jan-22 22:33S 23°60' W 046°18'  
2017-Jan-18 01:32S 23°59' W 046°17'0 0.0
2017-Jan-17 11:32S 23°59' W 046°17'0 0.0
2017-Jan-17 10:15S 23°59' W 046°17'0 0.0
2017-Jan-17 09:27S 23°59' W 046°17'0 0.0
2017-Jan-17 03:33S 23°59' W 046°17'0 0.0
2017-Jan-16 17:23S 23°59' W 046°17'0 0.0
2017-Jan-16 16:23S 23°59' W 046°17'0 0.0
2017-Jan-16 15:23S 23°59' W 046°17'0 0.0
2017-Jan-16 14:30S 23°59' W 046°17'0 0.0
2017-Jan-16 12:29S 23°59' W 046°17'0 0.0
2017-Jan-16 11:24S 23°59' W 046°17'1 0.7
2017-Jan-16 10:33S 23°60' W 046°18'8 7.5
2017-Jan-16 09:33S 24°06' W 046°22'1 1.5
2017-Jan-16 08:33S 24°06' W 046°21'0 0.0
2017-Jan-16 07:33S 24°06' W 046°21'0 0.0
2017-Jan-16 06:30S 24°06' W 046°21'0 0.0
2017-Jan-16 05:27S 24°06' W 046°21'0 0.0
2017-Jan-16 04:33S 24°06' W 046°21'0 0.0
2017-Jan-16 03:33S 24°06' W 046°21'0 0.1
2017-Jan-16 02:33S 24°06' W 046°21'0 0.0
2017-Jan-16 01:30S 24°06' W 046°21'0 0.0
2017-Jan-16 00:33S 24°06' W 046°21'0 0.0
2017-Jan-15 23:33S 24°06' W 046°21'0 0.0
2017-Jan-15 22:33S 24°06' W 046°21'0 0.1
2017-Jan-15 21:33S 24°06' W 046°21'0 0.0
2017-Jan-15 20:33S 24°06' W 046°21'0 0.0
2017-Jan-15 19:27S 24°06' W 046°21'0 0.0
2017-Jan-15 18:33S 24°06' W 046°21'0 0.0
2017-Jan-15 17:33S 24°06' W 046°21'0 0.0
2017-Jan-15 16:33S 24°05' W 046°21'0 0.0
2017-Jan-15 15:33S 24°05' W 046°21'0 0.0
2017-Jan-15 14:33S 24°06' W 046°21'0 0.1
2017-Jan-15 13:33S 24°06' W 046°21'0 0.1
2017-Jan-15 12:24S 24°06' W 046°21'0 0.0
2017-Jan-15 11:33S 24°06' W 046°21'0 0.0
2017-Jan-15 10:33S 24°06' W 046°21'0 0.1
2017-Jan-15 09:33S 24°06' W 046°21'0 0.1
2017-Jan-15 08:33S 24°06' W 046°21'0 0.0
2017-Jan-15 07:33S 24°06' W 046°21'0 0.0
2017-Jan-15 06:30S 24°06' W 046°21'0 0.0
2017-Jan-15 05:33S 24°06' W 046°21'0 0.0
2017-Jan-15 04:33S 24°06' W 046°21'0 0.0
2017-Jan-15 03:33S 24°06' W 046°21'0 0.0
2017-Jan-15 02:33S 24°06' W 046°21'0 0.0
2017-Jan-15 01:33S 24°06' W 046°21'0 0.0
2017-Jan-15 00:33S 24°06' W 046°21'0 0.0
2017-Jan-14 23:33S 24°06' W 046°21'0 0.0
2017-Jan-14 22:30S 24°06' W 046°21'0 0.1
2017-Jan-14 21:33S 24°06' W 046°21'0 0.0
2017-Jan-14 20:33S 24°06' W 046°21'0 0.0
2017-Jan-14 19:27S 24°06' W 046°21'0 0.1
2017-Jan-14 18:24S 24°05' W 046°21'0 0.2
2017-Jan-14 17:33S 24°06' W 046°21'5 5.4
2017-Jan-14 16:33S 24°10' W 046°24'1211.8
2017-Jan-14 15:33S 24°22' W 046°24'1212.1
2017-Jan-14 14:33S 24°34' W 046°25'1313.4
2017-Jan-14 13:33S 24°48' W 046°26'  

Dump ship's entire track history